Time;durP1;ratioP1;P1;durP2;ratioP2;P2;SDS_P1;SDS_P2;PMS_P1;PMS_P2;Temp;Humidity;BMP_temperature;BMP_pressure;BME280_temperature;BME280_humidity;BME280_pressure;Samples;Min_cycle;Max_cycle;Signal;HPM_P1;HPM_P2
2024/01/02 00:00:02;;;;;;;15.30;10.77;;;5.50;99.90;;;;;;4943671;29;20074;-55
2024/01/02 00:02:28;;;;;;;19.27;14.23;;;5.40;99.90;;;;;;4949211;29;20036;-54
2024/01/02 00:04:54;;;;;;;15.73;11.05;;;5.50;99.90;;;;;;4948455;29;20542;-56
2024/01/02 00:07:19;;;;;;;14.65;10.60;;;5.60;99.90;;;;;;4888999;29;20039;-55
2024/01/02 00:09:45;;;;;;;18.38;11.27;;;5.70;99.90;;;;;;4954550;29;20063;-55
2024/01/02 00:12:11;;;;;;;14.18;9.60;;;;;;;;;;4895232;29;20092;-54
2024/01/02 00:14:37;;;;;;;11.18;8.07;;;6.20;99.90;;;;;;4895279;29;20107;-55
2024/01/02 00:17:03;;;;;;;12.38;8.45;;;6.20;99.90;;;;;;4895529;29;20045;-54
2024/01/02 00:19:29;;;;;;;11.65;7.60;;;;;;;;;;4896085;29;20067;-58
2024/01/02 00:21:55;;;;;;;13.02;8.02;;;;;;;;;;4896305;29;20036;-55
2024/01/02 00:24:22;;;;;;;10.68;7.60;;;;;;;;;;4895366;29;20503;-57
2024/01/02 00:26:48;;;;;;;11.40;7.25;;;;;;;;;;4896118;29;20060;-56
2024/01/02 00:29:13;;;;;;;9.88;6.72;;;6.00;99.90;;;;;;4896139;29;20063;-54
2024/01/02 00:31:40;;;;;;;12.88;7.72;;;6.10;99.90;;;;;;4896174;29;20072;-56
2024/01/02 00:34:06;;;;;;;11.32;7.82;;;6.20;99.90;;;;;;4895974;29;20036;-56
2024/01/02 00:36:32;;;;;;;11.25;7.63;;;6.20;99.90;;;;;;4896023;29;20044;-55
2024/01/02 00:38:57;;;;;;;11.13;8.20;;;6.20;99.90;;;;;;4895966;29;20044;-54
2024/01/02 00:41:23;;;;;;;13.18;8.27;;;6.20;99.90;;;;;;4896091;29;20057;-55
2024/01/02 00:43:49;;;;;;;11.98;8.52;;;6.30;99.90;;;;;;4941952;29;20050;-55
2024/01/02 00:46:15;;;;;;;12.80;9.13;;;6.70;99.90;;;;;;4955196;29;20027;-55
2024/01/02 00:48:41;;;;;;;13.82;9.75;;;6.70;99.90;;;;;;4955660;29;20031;-54
2024/01/02 00:51:06;;;;;;;10.55;8.32;;;6.80;99.90;;;;;;4921111;29;20065;-54
2024/01/02 00:53:32;;;;;;;11.38;7.70;;;;;;;;;;4905766;29;20042;-54
2024/01/02 00:55:58;;;;;;;10.95;7.55;;;7.10;99.90;;;;;;4955208;29;20027;-54
2024/01/02 00:58:24;;;;;;;11.60;7.95;;;7.20;99.90;;;;;;4955146;29;20572;-54
2024/01/02 01:00:49;;;;;;;12.73;9.27;;;7.20;99.90;;;;;;4955365;29;20458;-57
2024/01/02 01:03:15;;;;;;;14.07;8.93;;;7.20;99.90;;;;;;4955003;29;20034;-55
2024/01/02 01:05:41;;;;;;;13.32;8.55;;;7.40;99.90;;;;;;4955342;29;20031;-56
2024/01/02 01:08:07;;;;;;;11.32;8.40;;;7.40;99.90;;;;;;4954989;29;20031;-54
2024/01/02 01:10:32;;;;;;;14.20;8.80;;;7.50;99.90;;;;;;4921139;29;20043;-54
2024/01/02 01:12:58;;;;;;;14.13;10.05;;;7.60;99.90;;;;;;4955213;29;20067;-56
2024/01/02 01:15:24;;;;;;;17.30;11.43;;;7.60;99.90;;;;;;4954793;29;20162;-55
2024/01/02 01:17:49;;;;;;;23.35;16.48;;;7.60;99.90;;;;;;4873943;29;20051;-56
2024/01/02 01:20:15;;;;;;;34.63;20.35;;;7.60;99.90;;;;;;4955015;29;20031;-55
2024/01/02 01:22:41;;;;;;;33.20;20.38;;;7.70;99.90;;;;;;4954673;29;20379;-54
2024/01/02 01:25:07;;;;;;;40.78;26.08;;;7.60;99.90;;;;;;4904791;29;20046;-54
2024/01/02 01:27:32;;;;;;;44.10;29.35;;;7.70;99.90;;;;;;4954540;29;20051;-56
2024/01/02 01:29:58;;;;;;;27.17;18.92;;;7.70;99.90;;;;;;4954865;29;20035;-54
2024/01/02 01:32:24;;;;;;;16.92;11.50;;;7.40;99.90;;;;;;4954815;29;20024;-55
2024/01/02 01:34:50;;;;;;;13.57;10.32;;;6.90;99.90;;;;;;4954895;29;20459;-54
2024/01/02 01:37:15;;;;;;;12.77;9.38;;;6.50;99.90;;;;;;4953413;29;20105;-55
2024/01/02 01:39:41;;;;;;;15.98;11.38;;;6.20;99.90;;;;;;4888781;29;20070;-54
2024/01/02 01:42:07;;;;;;;18.05;13.02;;;6.10;99.90;;;;;;4954660;29;20530;-54
2024/01/02 01:44:32;;;;;;;20.77;15.35;;;6.40;99.90;;;;;;4954342;29;20028;-53
2024/01/02 01:46:58;;;;;;;21.52;14.93;;;6.70;99.90;;;;;;4954418;29;20032;-56
2024/01/02 01:49:24;;;;;;;17.52;13.48;;;6.70;99.90;;;;;;4936144;29;20039;-54
2024/01/02 01:51:51;;;;;;;16.27;11.27;;;6.90;99.90;;;;;;4936380;29;20054;-55
2024/01/02 01:54:18;;;;;;;16.05;11.32;;;7.10;99.90;;;;;;4954499;29;20031;-54
2024/01/02 01:56:44;;;;;;;16.20;10.65;;;6.90;99.90;;;;;;4954069;29;20035;-54
2024/01/02 01:59:12;;;;;;;13.55;10.43;;;6.70;99.90;;;;;;4954345;29;20027;-55
2024/01/02 02:01:39;;;;;;;13.55;9.52;;;;;;;;;;4936066;29;20130;-57
2024/01/02 02:04:05;;;;;;;12.88;9.15;;;;;;;;;;4953941;29;20507;-55
2024/01/02 02:06:31;;;;;;;11.63;9.18;;;6.60;99.90;;;;;;4954408;29;20029;-55
2024/01/02 02:08:57;;;;;;;11.05;8.27;;;6.40;99.90;;;;;;4954224;29;20035;-56
2024/01/02 02:11:26;;;;;;;15.68;7.85;;;6.20;99.90;;;;;;4954376;29;20046;-56
2024/01/02 02:13:51;;;;;;;12.00;8.80;;;6.30;99.90;;;;;;4954054;29;20046;-56
2024/01/02 02:16:17;;;;;;;12.77;8.98;;;6.30;99.90;;;;;;4954122;29;20031;-55
2024/01/02 02:18:43;;;;;;;11.93;9.00;;;6.10;99.90;;;;;;4953958;29;20034;-54
2024/01/02 02:21:09;;;;;;;12.57;9.05;;;5.90;99.90;;;;;;4953906;29;20036;-54
2024/01/02 02:23:34;;;;;;;13.57;9.43;;;6.00;99.90;;;;;;4935867;29;20051;-55
2024/01/02 02:26:00;;;;;;;11.82;9.38;;;6.30;99.90;;;;;;4954244;29;20038;-53
2024/01/02 02:28:26;;;;;;;13.77;9.90;;;6.60;99.90;;;;;;4935728;29;20110;-55
2024/01/02 02:30:51;;;;;;;12.93;9.93;;;6.70;99.90;;;;;;4953901;29;20065;-56
2024/01/02 02:33:17;;;;;;;13.52;9.57;;;6.90;99.90;;;;;;4953772;29;20066;-55
2024/01/02 02:35:43;;;;;;;12.32;8.73;;;7.00;99.90;;;;;;4919918;28;20050;-56
2024/01/02 02:38:09;;;;;;;11.52;8.90;;;7.10;99.90;;;;;;4956346;29;20039;-55
2024/01/02 02:40:36;;;;;;;13.52;10.75;;;7.10;99.90;;;;;;4958327;29;20436;-55
2024/01/02 02:43:02;;;;;;;13.77;9.52;;;7.20;99.90;;;;;;4957615;29;20055;-56
2024/01/02 02:45:27;;;;;;;13.38;9.73;;;7.20;99.90;;;;;;4957645;29;20070;-56
2024/01/02 02:47:54;;;;;;;14.68;10.20;;;;;;;;;;4939346;29;20046;-56
2024/01/02 02:50:20;;;;;;;13.23;10.93;;;;;;;;;;4957404;29;20039;-55
2024/01/02 02:52:45;;;;;;;16.23;11.18;;;7.70;99.90;;;;;;4957452;29;20031;-55
2024/01/02 02:55:12;;;;;;;20.38;13.23;;;;;;;;;;4957504;29;20089;-54
2024/01/02 02:57:37;;;;;;;30.23;18.42;;;7.80;99.90;;;;;;4957583;29;20039;-55
2024/01/02 03:00:04;;;;;;;44.63;28.42;;;7.60;99.90;;;;;;4957542;29;20029;-53
2024/01/02 03:02:29;;;;;;;62.83;37.22;;;7.50;99.90;;;;;;4907839;29;20039;-56
2024/01/02 03:04:55;;;;;;;68.22;38.83;;;7.50;99.90;;;;;;4891622;29;20468;-57
2024/01/02 03:07:21;;;;;;;94.43;58.08;;;7.50;99.90;;;;;;4957470;29;20031;-54
2024/01/02 03:09:46;;;;;;;42.50;26.73;;;7.50;99.90;;;;;;4888235;29;20035;-55
2024/01/02 03:12:12;;;;;;;58.88;33.83;;;7.50;99.90;;;;;;4937907;29;20069;-54
2024/01/02 03:14:39;;;;;;;79.78;42.78;;;7.40;99.90;;;;;;4938192;29;20027;-58
2024/01/02 03:17:04;;;;;;;79.47;43.03;;;7.40;99.90;;;;;;4937666;29;20042;-57
2024/01/02 03:19:31;;;;;;;75.30;42.17;;;;;;;;;;4937871;29;20027;-57
2024/01/02 03:21:57;;;;;;;85.75;44.40;;;7.30;99.90;;;;;;4937713;29;20060;-54
2024/01/02 03:24:42;;;;;;;99.47;48.35;;;7.30;99.90;;;;;;4897587;29;20047;-53
2024/01/02 03:27:08;;;;;;;73.38;38.92;;;7.30;99.90;;;;;;4881264;29;20052;-52
2024/01/02 03:29:34;;;;;;;84.68;44.25;;;7.20;99.90;;;;;;4897465;29;20139;-52
2024/01/02 03:32:00;;;;;;;75.65;39.72;;;7.10;99.90;;;;;;4866241;29;20040;-53
2024/01/02 03:34:25;;;;;;;70.10;37.53;;;7.10;99.90;;;;;;4897472;29;20041;-53
2024/01/02 03:36:51;;;;;;;66.50;34.30;;;7.20;99.90;;;;;;4897211;29;20112;-52
2024/01/02 03:39:17;;;;;;;62.45;34.97;;;7.20;99.90;;;;;;4897392;29;20041;-56
2024/01/02 03:41:42;;;;;;;58.92;33.83;;;7.10;99.90;;;;;;4897308;29;20119;-53
2024/01/02 03:44:08;;;;;;;57.50;31.65;;;6.90;99.90;;;;;;4897040;29;20064;-53
2024/01/02 03:46:34;;;;;;;50.88;31.25;;;7.00;99.90;;;;;;4897354;29;20039;-54
2024/01/02 03:48:59;;;;;;;49.47;29.33;;;7.00;99.90;;;;;;4896721;29;20440;-53
2024/01/02 03:51:25;;;;;;;49.92;30.77;;;6.90;99.90;;;;;;4897343;29;20036;-54
2024/01/02 03:53:51;;;;;;;29.63;19.65;;;6.70;99.90;;;;;;4897205;29;20068;-53
2024/01/02 03:56:17;;;;;;;23.15;16.30;;;6.30;99.90;;;;;;4926675;29;20098;-53
2024/01/02 03:58:43;;;;;;;17.80;11.18;;;5.90;99.90;;;;;;4937037;29;20043;-54
2024/01/02 04:01:08;;;;;;;13.43;10.32;;;5.30;99.90;;;;;;4937000;29;20027;-53
2024/01/02 04:03:34;;;;;;;16.63;12.63;;;5.00;99.90;;;;;;4937198;29;20102;-54
2024/01/02 04:06:00;;;;;;;20.33;14.65;;;5.00;99.90;;;;;;4937678;29;20027;-53
2024/01/02 04:08:26;;;;;;;19.83;14.20;;;4.90;99.90;;;;;;4937617;29;20031;-52
2024/01/02 04:10:51;;;;;;;20.08;14.38;;;4.90;99.90;;;;;;4919215;29;20036;-53
2024/01/02 04:13:17;;;;;;;20.88;14.93;;;5.00;99.90;;;;;;4937095;29;20055;-53
2024/01/02 04:15:43;;;;;;;18.98;13.13;;;5.30;99.90;;;;;;4937377;29;20028;-53
2024/01/02 04:18:09;;;;;;;18.40;14.13;;;5.70;99.90;;;;;;4918760;29;20069;-54
2024/01/02 04:20:34;;;;;;;24.77;17.08;;;5.90;99.90;;;;;;4936956;29;20490;-54
2024/01/02 04:23:00;;;;;;;20.83;14.27;;;6.00;99.90;;;;;;4936912;29;20028;-54
2024/01/02 04:25:26;;;;;;;17.30;13.55;;;5.80;99.90;;;;;;4934596;29;20039;-54
2024/01/02 04:27:57;;;;;;;16.88;11.73;;;5.60;99.90;;;;;;4934253;29;20135;-54
2024/01/02 04:30:23;;;;;;;15.40;11.35;;;5.60;99.90;;;;;;4934469;29;20044;-53
2024/01/02 04:32:49;;;;;;;14.10;10.23;;;5.70;99.90;;;;;;4934431;29;20111;-54
2024/01/02 04:35:15;;;;;;;13.55;9.05;;;5.60;99.90;;;;;;4934083;29;20126;-53
2024/01/02 04:37:40;;;;;;;14.52;11.60;;;5.50;99.90;;;;;;4934036;29;20078;-53
2024/01/02 04:40:07;;;;;;;12.80;9.68;;;5.50;99.90;;;;;;4933918;29;20092;-55
2024/01/02 04:42:35;;;;;;;14.70;11.05;;;5.60;99.90;;;;;;4934131;29;20090;-52
2024/01/02 04:45:04;;;;;;;13.30;10.20;;;5.70;99.90;;;;;;4933893;29;20066;-53
2024/01/02 04:47:30;;;;;;;14.98;9.77;;;5.70;99.90;;;;;;4933818;29;20042;-53
2024/01/02 04:49:56;;;;;;;16.30;11.35;;;5.70;99.90;;;;;;4933862;29;20035;-53
2024/01/02 04:52:22;;;;;;;14.65;9.82;;;5.90;99.90;;;;;;4917880;29;20059;-54
2024/01/02 04:54:48;;;;;;;11.77;9.23;;;5.60;99.90;;;;;;4933898;29;20444;-54
2024/01/02 04:57:14;;;;;;;14.68;10.52;;;5.30;99.90;;;;;;4919476;29;20051;-54
2024/01/02 04:59:40;;;;;;;13.75;9.30;;;5.20;99.90;;;;;;4916451;29;20032;-52
2024/01/02 05:02:05;;;;;;;13.77;9.07;;;4.90;99.90;;;;;;4916968;29;20380;-54
2024/01/02 05:04:31;;;;;;;12.90;8.68;;;4.70;99.90;;;;;;4917160;29;20023;-54
2024/01/02 05:06:57;;;;;;;9.10;5.78;;;4.50;99.90;;;;;;4899010;29;20075;-53
2024/01/02 05:09:22;;;;;;;12.77;8.65;;;4.40;99.90;;;;;;4916823;29;20633;-53
2024/01/02 05:11:49;;;;;;;14.07;9.68;;;;;;;;;;4917324;29;20036;-54
2024/01/02 05:14:17;;;;;;;17.55;11.88;;;4.00;99.90;;;;;;4914683;29;20036;-53
2024/01/02 05:16:43;;;;;;;21.02;14.10;;;3.90;99.90;;;;;;4916775;29;20035;-54
2024/01/02 05:19:09;;;;;;;22.38;14.85;;;3.90;99.90;;;;;;4914660;29;20040;-53
2024/01/02 05:21:35;;;;;;;17.58;13.15;;;4.00;99.90;;;;;;4916652;29;20031;-54
2024/01/02 05:24:01;;;;;;;19.60;14.02;;;4.10;99.90;;;;;;4916709;29;20084;-53
2024/01/02 05:26:26;;;;;;;22.90;15.95;;;4.40;99.90;;;;;;4918560;29;20066;-53
2024/01/02 05:28:52;;;;;;;22.17;14.25;;;4.60;99.90;;;;;;4941013;28;20027;-54
2024/01/02 05:31:18;;;;;;;24.05;15.27;;;4.70;99.90;;;;;;4954476;29;20031;-54
2024/01/02 05:33:43;;;;;;;37.72;29.65;;;4.40;99.90;;;;;;4954587;29;20542;-53
2024/01/02 05:36:09;;;;;;;24.80;18.23;;;4.20;99.90;;;;;;4954489;29;20031;-54
2024/01/02 05:38:35;;;;;;;22.45;15.70;;;4.40;99.90;;;;;;4954091;29;20094;-54
2024/01/02 05:41:00;;;;;;;18.50;13.57;;;4.60;99.90;;;;;;4954431;29;20499;-53
2024/01/02 05:43:26;;;;;;;68.88;29.33;;;4.70;99.90;;;;;;4954358;29;20077;-54
2024/01/02 05:45:52;;;;;;;21.10;13.35;;;4.70;99.90;;;;;;4954462;29;20027;-53
2024/01/02 05:48:18;;;;;;;24.15;17.17;;;4.40;99.90;;;;;;4954045;29;20031;-53
2024/01/02 05:50:44;;;;;;;41.13;31.48;;;4.30;99.90;;;;;;4954342;29;20031;-55
2024/01/02 05:53:09;;;;;;;27.75;20.27;;;4.20;99.90;;;;;;4920155;29;20122;-54
2024/01/02 05:55:35;;;;;;;25.27;16.58;;;4.40;99.90;;;;;;4954465;29;20505;-53
2024/01/02 05:58:01;;;;;;;15.45;11.15;;;4.50;99.90;;;;;;4954222;29;20031;-53
2024/01/02 06:00:27;;;;;;;15.10;10.27;;;4.50;99.90;;;;;;4953711;29;20054;-53
2024/01/02 06:02:53;;;;;;;18.13;10.35;;;;;;;;;;4954243;29;20034;-54
2024/01/02 06:05:19;;;;;;;17.70;11.35;;;4.20;99.90;;;;;;4954118;29;20035;-53
2024/01/02 06:07:44;;;;;;;18.27;11.98;;;4.10;99.90;;;;;;4953915;29;20027;-54
2024/01/02 06:10:11;;;;;;;17.38;11.05;;;3.90;99.90;;;;;;4954329;29;20038;-54
2024/01/02 06:12:37;;;;;;;14.70;10.90;;;3.70;99.90;;;;;;4953820;29;20420;-53
2024/01/02 06:15:03;;;;;;;14.70;10.93;;;3.60;99.90;;;;;;4953660;29;20090;-53
2024/01/02 06:17:29;;;;;;;13.63;11.20;;;3.60;99.90;;;;;;4925751;29;20052;-53
2024/01/02 06:19:54;;;;;;;14.95;10.82;;;3.70;99.90;;;;;;4953459;29;20086;-53
2024/01/02 06:22:20;;;;;;;17.00;12.77;;;;;;;;;;4953218;29;20115;-54
2024/01/02 06:24:47;;;;;;;18.10;11.90;;;;;;;;;;4953832;29;20063;-52
2024/01/02 06:27:13;;;;;;;18.45;13.13;;;;;;;;;;4904443;29;20107;-50
2024/01/02 06:29:39;;;;;;;17.85;13.55;;;3.30;99.90;;;;;;4953600;29;20038;-52
2024/01/02 06:32:05;;;;;;;18.65;13.77;;;3.30;99.90;;;;;;4953732;29;20114;-51
2024/01/02 06:34:32;;;;;;;18.55;13.77;;;3.30;99.90;;;;;;4953924;29;20035;-51
2024/01/02 06:36:57;;;;;;;20.02;14.48;;;3.30;99.90;;;;;;4920022;29;20054;-52
2024/01/02 06:39:23;;;;;;;20.40;14.77;;;3.30;99.90;;;;;;4953579;29;20036;-53
2024/01/02 06:41:49;;;;;;;22.70;14.20;;;3.30;99.90;;;;;;4953804;29;20110;-52
2024/01/02 06:44:15;;;;;;;18.50;12.45;;;3.40;99.90;;;;;;4954064;29;20055;-50
2024/01/02 06:46:41;;;;;;;15.98;11.10;;;3.70;99.90;;;;;;4953641;29;20089;-51
2024/01/02 06:49:09;;;;;;;14.82;9.45;;;;;;;;;;4953432;29;20031;-51
2024/01/02 06:51:34;;;;;;;13.60;8.55;;;4.00;99.90;;;;;;4954168;29;20038;-50
2024/01/02 06:54:01;;;;;;;11.48;8.85;;;4.00;99.90;;;;;;4952830;29;20035;-52
2024/01/02 06:56:27;;;;;;;10.00;7.25;;;4.90;99.90;;;;;;4953789;29;20031;-51
2024/01/02 06:58:53;;;;;;;8.07;5.72;;;;;;;;;;4936408;29;20113;-53
2024/01/02 07:01:19;;;;;;;9.05;7.50;;;;;;;;;;4953509;29;20035;-52
2024/01/02 07:03:47;;;;;;;10.88;8.27;;;;;;;;;;4953196;29;20090;-52
2024/01/02 07:06:13;;;;;;;10.25;7.93;;;;;;;;;;4952079;28;20047;-51
2024/01/02 07:08:39;;;;;;;9.32;6.68;;;10.30;99.90;;;;;;4952773;29;20028;-51
2024/01/02 07:11:06;;;;;;;9.98;7.28;;;;;;;;;;4951928;29;20377;-51
2024/01/02 07:13:31;;;;;;;7.90;5.50;;;11.40;99.90;;;;;;4952600;29;20498;-51
2024/01/02 07:15:57;;;;;;;6.57;4.90;;;11.10;99.90;;;;;;4951912;29;20031;-51
2024/01/02 07:18:23;;;;;;;4.32;3.10;;;11.40;99.20;;;;;;4953307;29;20066;-51
2024/01/02 07:20:49;;;;;;;9.75;5.70;;;11.50;98.30;;;;;;4952311;29;20027;-51
2024/01/02 07:23:15;;;;;;;7.32;5.22;;;11.60;98.30;;;;;;4954368;28;20030;-51
2024/01/02 07:25:41;;;;;;;8.63;5.82;;;11.40;98.10;;;;;;4956857;29;20082;-51
2024/01/02 07:28:07;;;;;;;8.00;6.45;;;11.70;98.00;;;;;;4955172;29;20058;-52
2024/01/02 07:30:34;;;;;;;6.95;5.25;;;11.90;97.60;;;;;;4938399;29;20051;-50
2024/01/02 07:32:59;;;;;;;7.45;5.90;;;12.40;97.80;;;;;;4907212;29;20046;-51
2024/01/02 07:35:26;;;;;;;8.48;6.35;;;;;;;;;;4903451;29;20118;-51
2024/01/02 07:37:52;;;;;;;7.30;6.38;;;;;;;;;;4956571;29;20039;-52
2024/01/02 07:40:18;;;;;;;8.93;8.02;;;;;;;;;;4956141;29;20526;-52
2024/01/02 07:42:44;;;;;;;11.65;9.38;;;;;;;;;;4955038;29;20495;-52
2024/01/02 07:45:10;;;;;;;15.65;10.70;;;;;;;;;;4955938;29;20027;-52
2024/01/02 07:47:38;;;;;;;20.58;17.13;;;;;;;;;;4956393;29;20467;-52
2024/01/02 07:50:04;;;;;;;18.17;14.10;;;;;;;;;;4955304;29;20094;-52
2024/01/02 07:52:31;;;;;;;15.70;13.50;;;;;;;;;;4955419;29;20059;-52
2024/01/02 07:54:57;;;;;;;15.60;12.40;;;;;;;;;;4937859;29;20090;-52
2024/01/02 07:57:25;;;;;;;22.83;16.45;;;;;;;;;;4955270;29;20102;-52
2024/01/02 07:59:51;;;;;;;16.92;12.60;;;;;;;;;;4955387;29;20035;-52
2024/01/02 08:02:17;;;;;;;17.17;14.80;;;;;;;;;;4955067;29;20064;-52
2024/01/02 08:04:43;;;;;;;18.45;15.95;;;24.60;93.90;;;;;;4955325;29;20676;-52
2024/01/02 08:07:08;;;;;;;23.75;21.40;;;25.60;75.40;;;;;;4920031;29;20043;-52
2024/01/02 08:09:34;;;;;;;24.83;22.35;;;;;;;;;;4954962;29;20023;-52
2024/01/02 08:12:00;;;;;;;22.92;20.52;;;26.10;73.00;;;;;;4954876;29;20032;-52
2024/01/02 08:14:26;;;;;;;24.90;22.40;;;;;;;;;;4955141;29;20034;-53
2024/01/02 08:16:52;;;;;;;30.83;27.50;;;25.60;89.30;;;;;;4953306;29;20031;-52
2024/01/02 08:19:18;;;;;;;34.00;30.35;;;;;;;;;;4905107;29;20081;-53
2024/01/02 08:21:44;;;;;;;40.13;34.00;;;;;;;;;;4954754;28;20030;-54
2024/01/02 08:24:10;;;;;;;32.35;28.13;;;24.80;73.80;;;;;;4954481;28;20031;-52
2024/01/02 08:26:36;;;;;;;24.70;22.27;;;23.20;73.60;;;;;;4955577;29;20059;-52
2024/01/02 08:29:03;;;;;;;22.67;20.48;;;;;;;;;;4955572;29;20035;-52
2024/01/02 08:31:29;;;;;;;24.20;21.80;;;;;;;;;;4955522;29;20031;-52
2024/01/02 08:33:55;;;;;;;23.58;21.20;;;;;;;;;;4955133;28;20360;-53
2024/01/02 08:36:21;;;;;;;23.48;21.23;;;21.40;99.90;;;;;;4954771;29;20035;-52
2024/01/02 08:38:47;;;;;;;26.92;24.23;;;;;;;;;;4928915;29;20169;-52
2024/01/02 08:41:13;;;;;;;25.00;22.42;;;23.80;82.30;;;;;;4950420;28;20039;-52
2024/01/02 08:43:39;;;;;;;25.13;22.73;;;23.00;75.70;;;;;;4953723;29;20500;-52
2024/01/02 08:46:05;;;;;;;23.15;20.85;;;22.20;77.00;;;;;;4954444;29;20031;-52
2024/01/02 08:48:30;;;;;;;20.13;17.45;;;22.20;77.00;;;;;;4954214;29;20464;-51
2024/01/02 08:50:56;;;;;;;19.48;17.45;;;23.10;76.50;;;;;;4954140;29;20027;-52
2024/01/02 08:53:22;;;;;;;19.48;17.52;;;22.50;76.90;;;;;;4936689;29;20031;-51
2024/01/02 08:55:48;;;;;;;26.45;23.63;;;23.10;76.50;;;;;;4955553;29;20391;-52
2024/01/02 08:58:14;;;;;;;17.58;15.75;;;22.40;77.00;;;;;;4955077;29;20039;-52
2024/01/02 09:00:40;;;;;;;17.08;15.48;;;22.00;76.50;;;;;;4920879;29;20082;-52
2024/01/02 09:03:08;;;;;;;14.95;12.75;;;22.40;77.10;;;;;;4904570;29;20039;-52
2024/01/02 09:05:33;;;;;;;14.20;12.25;;;22.60;76.50;;;;;;4953424;29;20127;-52
2024/01/02 09:08:00;;;;;;;16.35;14.75;;;22.40;76.60;;;;;;4950598;29;20106;-52
2024/01/02 09:10:25;;;;;;;15.50;13.98;;;22.70;77.10;;;;;;4953641;29;20479;-52
2024/01/02 09:12:51;;;;;;;21.00;16.70;;;23.10;76.60;;;;;;4954358;29;20030;-52
2024/01/02 09:15:17;;;;;;;15.30;13.63;;;21.90;75.90;;;;;;4953838;29;20094;-52
2024/01/02 09:17:43;;;;;;;13.00;11.80;;;21.50;77.50;;;;;;4953277;29;20039;-52
2024/01/02 09:20:11;;;;;;;15.27;13.65;;;;;;;;;;4953838;29;20036;-52
2024/01/02 09:22:37;;;;;;;14.55;13.25;;;24.00;98.00;;;;;;4910877;29;20039;-52
2024/01/02 09:25:04;;;;;;;17.17;15.57;;;;;;;;;;4952774;29;20399;-52
2024/01/02 09:27:30;;;;;;;20.60;18.60;;;;;;;;;;4951896;29;20067;-52
2024/01/02 09:29:58;;;;;;;15.98;14.43;;;25.00;92.20;;;;;;4951468;29;20027;-52
2024/01/02 09:32:25;;;;;;;14.10;12.60;;;23.20;75.00;;;;;;4953982;29;20035;-52
2024/01/02 09:34:51;;;;;;;13.70;11.77;;;;;;;;;;4953732;29;20059;-52
2024/01/02 09:37:17;;;;;;;12.43;11.10;;;;;;;;;;4953585;29;20110;-52
2024/01/02 09:39:45;;;;;;;13.02;11.52;;;;;;;;;;4953923;29;20360;-52
2024/01/02 09:42:11;;;;;;;15.68;14.20;;;;;;;;;;4953208;29;20475;-52
2024/01/02 09:44:37;;;;;;;13.85;12.48;;;;;;;;;;4952736;29;20023;-52
2024/01/02 09:47:29;;;;;;;14.18;12.77;;;;;;;;;;4952110;28;20042;-52
2024/01/02 09:49:59;;;;;;;13.30;12.00;;;;;;;;;;4948880;29;20054;-52
2024/01/02 09:52:45;;;;;;;11.73;10.68;;;;;;;;;;4952693;29;20039;-52
2024/01/02 09:55:11;;;;;;;13.65;12.40;;;;;;;;;;4934545;29;20039;-52
2024/01/02 09:57:52;;;;;;;11.93;10.85;;;;;;;;;;4935730;28;20465;-52
2024/01/02 10:00:36;;;;;;;12.60;11.50;;;;;;;;;;4951703;29;20027;-52
2024/01/02 10:03:18;;;;;;;11.27;10.07;;;;;;;;;;4950673;29;20035;-52
2024/01/02 10:06:07;;;;;;;13.05;11.00;;;;;;;;;;4950883;29;20023;-52
2024/01/02 10:08:44;;;;;;;11.25;10.10;;;27.80;70.30;;;;;;4895699;29;20500;-52
2024/01/02 10:11:27;;;;;;;10.30;9.27;;;27.60;71.40;;;;;;4914304;29;20453;-52
2024/01/02 10:14:07;;;;;;;9.82;8.80;;;;;;;;;;4922676;29;20031;-53
2024/01/02 10:16:38;;;;;;;10.13;9.13;;;27.40;69.80;;;;;;4927041;29;20083;-53
2024/01/02 10:19:06;;;;;;;9.60;8.60;;;;;;;;;;4920357;29;20603;-52
2024/01/02 10:21:44;;;;;;;14.43;13.13;;;;;;;;;;4916565;29;20267;-52
2024/01/02 10:24:11;;;;;;;14.52;13.27;;;;;;;;;;4912292;29;20547;-52
2024/01/02 10:26:46;;;;;;;18.10;16.33;;;28.10;82.90;;;;;;4912239;29;20060;-53
2024/01/02 10:29:18;;;;;;;12.27;10.80;;;;;;;;;;4913366;29;20119;-52
2024/01/02 10:31:47;;;;;;;11.95;8.15;;;;;;;;;;4920201;29;20751;-52
2024/01/02 10:34:21;;;;;;;12.25;9.98;;;28.60;69.90;;;;;;4914268;29;20475;-53
2024/01/02 10:36:56;;;;;;;10.05;8.95;;;28.80;69.80;;;;;;4914752;29;20027;-52
2024/01/02 10:39:35;;;;;;;11.10;8.65;;;26.60;68.80;;;;;;4933885;29;20134;-52
2024/01/02 10:42:13;;;;;;;7.97;7.15;;;27.10;70.50;;;;;;4951171;29;20031;-52
2024/01/02 10:44:52;;;;;;;8.20;7.07;;;27.10;70.30;;;;;;4950902;29;20109;-52
2024/01/02 10:47:39;;;;;;;16.92;15.13;;;27.10;70.30;;;;;;4950690;29;20034;-53
2024/01/02 10:50:09;;;;;;;11.43;7.45;;;26.00;70.30;;;;;;4951342;29;20423;-53
2024/01/02 10:53:11;;;;;;;6.93;5.80;;;26.40;71.50;;;;;;4951974;29;20415;-53
2024/01/02 10:55:51;;;;;;;9.65;6.85;;;25.50;71.10;;;;;;4910366;29;20059;-53
2024/01/02 10:58:26;;;;;;;11.88;9.45;;;25.30;70.90;;;;;;4951080;28;20031;-53
2024/01/02 11:01:00;;;;;;;10.32;8.75;;;26.40;98.50;;;;;;4953256;29;20451;-52
2024/01/02 11:03:28;;;;;;;14.65;10.45;;;25.30;71.90;;;;;;4913894;29;20032;-53
2024/01/02 11:06:04;;;;;;;12.45;10.40;;;;;;;;;;4903241;29;20035;-53
2024/01/02 11:09:11;;;;;;;7.97;7.18;;;26.00;72.90;;;;;;4955572;29;20019;-53
2024/01/02 11:11:40;;;;;;;10.95;7.93;;;25.40;71.80;;;;;;4862476;29;20039;-52
2024/01/02 11:14:06;;;;;;;10.70;7.75;;;;;;;;;;4936910;29;20079;-53
2024/01/02 11:16:38;;;;;;;9.25;6.75;;;25.60;70.60;;;;;;4918783;29;20095;-52
2024/01/02 11:19:04;;;;;;;;;;;25.30;70.80;;;;;;4946410;28;20487;-53
2024/01/02 11:21:30;;;;;;;11.20;9.98;;;25.10;72.90;;;;;;4956225;29;19913;-53
2024/01/02 11:23:59;;;;;;;4.13;3.58;;;25.10;73.50;;;;;;4955540;29;20434;-53
2024/01/02 11:26:29;;;;;;;2.20;1.65;;;24.30;68.50;;;;;;4955412;29;20027;-53
2024/01/02 11:28:58;;;;;;;2.92;1.80;;;;;;;;;;4955348;29;20657;-52
2024/01/02 11:31:25;;;;;;;2.83;1.73;;;;;;;;;;4954962;29;20031;-53
2024/01/02 11:33:57;;;;;;;2.65;2.13;;;;;;;;;;4955366;29;20031;-52
2024/01/02 11:36:31;;;;;;;4.15;3.70;;;;;;;;;;4952975;29;20436;-52
2024/01/02 11:39:00;;;;;;;7.97;7.20;;;;;;;;;;4953932;29;20512;-52
2024/01/02 11:41:34;;;;;;;2.78;1.90;;;;;;;;;;4954936;29;20491;-52
2024/01/02 11:44:07;;;;;;;2.00;1.75;;;;;;;;;;4952394;29;20073;-52
2024/01/02 11:46:35;;;;;;;2.70;2.08;;;;;;;;;;4954330;29;20484;-52
2024/01/02 11:49:14;;;;;;;4.40;2.38;;;19.40;71.60;;;;;;4954795;29;20035;-52
2024/01/02 11:51:46;;;;;;;2.50;2.10;;;20.00;72.30;;;;;;4954241;29;20066;-52
2024/01/02 11:54:21;;;;;;;2.72;2.00;;;;;;;;;;4955215;29;20030;-53
2024/01/02 11:56:48;;;;;;;3.28;2.15;;;;;;;;;;4955624;29;20031;-52
2024/01/02 11:59:35;;;;;;;4.55;2.97;;;19.10;75.40;;;;;;4955098;29;20372;-52
2024/01/02 12:02:00;;;;;;;3.60;2.90;;;18.70;74.10;;;;;;4954505;29;20114;-52
2024/01/02 12:04:26;;;;;;;2.88;1.95;;;;;;;;;;4954682;29;20106;-52
2024/01/02 12:07:07;;;;;;;5.72;3.08;;;18.30;80.60;;;;;;4954518;29;20427;-53
2024/01/02 12:09:39;;;;;;;4.00;2.90;;;18.50;76.20;;;;;;4953819;28;20031;-52
2024/01/02 12:12:11;;;;;;;5.47;3.40;;;;;;;;;;4955186;29;20031;-52
2024/01/02 12:14:58;;;;;;;4.07;2.78;;;18.70;97.10;;;;;;4930946;29;20491;-52
2024/01/02 12:17:28;;;;;;;6.55;2.92;;;18.20;94.50;;;;;;4953720;29;20054;-52
2024/01/02 12:20:04;;;;;;;5.47;3.22;;;17.70;92.30;;;;;;4954798;29;20487;-53
2024/01/02 12:22:33;;;;;;;6.35;3.33;;;;;;;;;;4954208;29;20031;-52
2024/01/02 12:25:00;;;;;;;8.15;3.45;;;;;;;;;;4954529;29;20391;-54
2024/01/02 12:27:27;;;;;;;5.03;2.63;;;17.60;79.40;;;;;;4954862;29;20493;-53
2024/01/02 12:29:58;;;;;;;4.38;2.92;;;;;;;;;;4953597;29;20038;-52
2024/01/02 12:32:35;;;;;;;6.13;3.45;;;17.40;98.80;;;;;;4952922;29;20141;-52
2024/01/02 12:35:10;;;;;;;4.82;3.00;;;17.70;81.80;;;;;;4901713;29;20043;-55
2024/01/02 12:37:39;;;;;;;5.68;3.42;;;;;;;;;;4898703;29;20052;-57
2024/01/02 12:40:10;;;;;;;6.13;3.53;;;17.90;80.40;;;;;;4952694;29;20090;-54
2024/01/02 12:42:42;;;;;;;5.32;3.00;;;;;;;;;;4951752;29;20050;-56
2024/01/02 12:45:12;;;;;;;;;;;17.10;81.50;;;;;;4947710;28;20034;-56
2024/01/02 12:47:42;;;;;;;5.82;3.47;;;16.90;82.80;;;;;;4951868;29;19921;-56
2024/01/02 12:50:08;;;;;;;5.38;2.78;;;17.20;83.00;;;;;;4952042;29;20030;-58
2024/01/02 12:52:50;;;;;;;4.40;2.90;;;16.80;83.80;;;;;;4902013;29;20035;-55
2024/01/02 12:55:18;;;;;;;4.15;2.75;;;;;;;;;;4951708;29;20016;-56
2024/01/02 12:57:46;;;;;;;6.70;3.03;;;16.10;84.60;;;;;;4953498;29;20034;-55
2024/01/02 13:00:12;;;;;;;4.80;3.17;;;;;;;;;;4950697;29;20023;-56
2024/01/02 13:02:39;;;;;;;5.70;3.47;;;15.60;86.80;;;;;;4919913;29;20044;-55
2024/01/02 13:05:07;;;;;;;6.20;3.83;;;15.60;88.20;;;;;;4953712;29;20043;-55
2024/01/02 13:07:36;;;;;;;5.07;3.60;;;15.40;89.40;;;;;;4953702;29;20483;-55